| time (UTC) | temp F | wind direction | speed MPH | gust MPH | rain 1hr in | rain 24hr in | rain mn in | humidity % | barometer mb |
| 20260506044538 | 57 | 333 | 9.0 | 13.0 | 0.00 | 0.07 | 0.00 | 45 | 1015.3 |
| 20260506043017 | 57 | 335 | 7.0 | 11.0 | 0.00 | 0.08 | 0.00 | 45 | 1015.1 |
| 20260506041520 | 56 | 288 | 3.0 | 5.0 | 0.00 | 0.08 | 0.00 | 52 | 1015.1 |
| 20260506040029 | 58 | 311 | 1.0 | 7.0 | 0.00 | 0.09 | 0.00 | 47 | 1015.0 |
| 20260506034531 | 59 | 288 | 6.0 | 13.0 | 0.00 | 0.10 | 0.00 | 44 | 1014.5 |
| 20260506033028 | 59 | 326 | 6.0 | 8.0 | 0.00 | 0.12 | 0.00 | 44 | 1014.1 |
| 20260506031519 | 59 | 319 | 6.0 | 9.0 | 0.00 | 0.12 | 0.00 | 47 | 1014.0 |
| 20260506030020 | 59 | 275 | 6.0 | 9.0 | 0.00 | 0.12 | 0.00 | 49 | 1013.8 |
| 20260506024528 | 59 | 252 | 7.0 | 11.0 | 0.00 | 0.12 | 0.00 | 52 | 1013.6 |
| 20260506023026 | 60 | 284 | 7.0 | 12.0 | 0.00 | 0.12 | 0.00 | 50 | 1013.4 |
| 20260506021503 | 61 | 281 | 4.0 | 10.0 | 0.00 | 0.12 | 0.00 | 51 | 1013.4 |
| 20260506020003 | 63 | 273 | 6.0 | 11.0 | 0.00 | 0.12 | 0.00 | 47 | 1013.2 |
| 20260506014504 | 64 | 277 | 5.0 | 10.0 | 0.00 | 0.19 | 0.00 | 39 | 1013.1 |
| 20260506013004 | 65 | 285 | 8.0 | 13.0 | 0.00 | 0.20 | 0.00 | 37 | 1013.1 |
| 20260506011509 | 65 | 335 | 6.0 | 9.0 | 0.00 | 0.21 | 0.00 | 37 | 1013.1 |
| 20260506010003 | 65 | 269 | 1.0 | 6.0 | 0.00 | 0.24 | 0.00 | 38 | 1013.1 |
| 20260506004513 | 64 | 290 | 2.0 | 5.0 | 0.00 | 0.24 | 0.00 | 39 | 1013.2 |
| 20260506003005 | 62 | 282 | 3.0 | 8.0 | 0.00 | 0.24 | 0.00 | 42 | 1013.2 |
| 20260506001504 | 64 | 301 | 7.0 | 13.0 | 0.00 | 0.24 | 0.00 | 37 | 1013.1 |
| 20260506000003 | 63 | 48 | 7.0 | 11.0 | 0.00 | 0.24 | 0.00 | 37 | 1013.1 |
| 20260505234504 | 64 | 68 | 3.0 | 8.0 | 0.00 | 0.24 | 0.00 | 36 | 1013.1 |
| 20260505233004 | 62 | 332 | 7.0 | 10.0 | 0.00 | 0.24 | 0.00 | 37 | 1013.1 |
| 20260505231507 | 62 | 315 | 7.0 | 12.0 | 0.00 | 0.24 | 0.00 | 40 | 1013.1 |
| 20260505230007 | 63 | 176 | 5.0 | 10.0 | 0.00 | 0.24 | 0.00 | 38 | 1013.1 |
| 20260505224505 | 63 | 252 | 2.0 | 7.0 | 0.00 | 0.24 | 0.00 | 40 | 1013.3 |
| 20260505223015 | 64 | 8 | 2.0 | 5.0 | 0.00 | 0.24 | 0.00 | 40 | 1013.4 |
| 20260505221504 | 62 | 213 | 1.0 | 4.0 | 0.00 | 0.28 | 0.00 | 45 | 1013.7 |
| 20260505220017 | 61 | 153 | 3.0 | 8.0 | 0.00 | 0.35 | 0.00 | 49 | 1013.7 |
| 20260505214511 | 61 | 191 | 3.0 | 7.0 | 0.00 | 0.37 | 0.00 | 51 | 1013.8 |
| 20260505213006 | 61 | 281 | 4.0 | 10.0 | 0.00 | 0.39 | 0.00 | 47 | 1013.9 |
| 20260505211508 | 61 | 276 | 3.0 | 8.0 | 0.00 | 0.39 | 0.00 | 49 | 1013.9 |
| 20260505210006 | 61 | 281 | 4.0 | 9.0 | 0.00 | 0.39 | 0.00 | 51 | 1014.0 |
| 20260505204510 | 64 | 132 | 3.0 | 6.0 | 0.00 | 0.39 | 0.00 | 45 | 1014.1 |
| 20260505203012 | 59 | 212 | 1.0 | 7.0 | 0.00 | 0.39 | 0.00 | 54 | 1014.2 |
| 20260505201507 | 59 | 335 | 5.0 | 7.0 | 0.00 | 0.39 | 0.00 | 54 | 1014.3 |
| 20260505200008 | 59 | 323 | 7.0 | 11.0 | 0.00 | 0.39 | 0.00 | 52 | 1014.3 |
| 20260505194519 | 57 | 291 | 4.0 | 9.0 | 0.00 | 0.39 | 0.00 | 57 | 1014.4 |
| 20260505193010 | 57 | 163 | 2.0 | 11.0 | 0.00 | 0.39 | 0.00 | 58 | 1014.3 |
| 20260505191517 | 56 | 259 | 3.0 | 6.0 | 0.00 | 0.39 | 0.00 | 63 | 1014.3 |
| 20260505190011 | 54 | 294 | 4.0 | 7.0 | 0.00 | 0.39 | 0.00 | 65 | 1014.2 |
| 20260505184514 | 53 | 360 | 1.0 | 6.0 | 0.00 | 0.39 | 0.00 | 68 | 1014.2 |
| 20260505183017 | 53 | 337 | 5.0 | 10.0 | 0.00 | 0.39 | 0.00 | 66 | 1014.2 |
| 20260505181514 | 52 | 124 | 5.0 | 14.0 | 0.00 | 0.39 | 0.00 | 71 | 1014.1 |
| 20260505180013 | 52 | 292 | 6.0 | 12.0 | 0.00 | 0.39 | 0.00 | 72 | 1013.9 |
| 20260505174516 | 51 | 339 | 9.0 | 12.0 | 0.00 | 0.39 | 0.00 | 77 | 1013.8 |
| 20260505173017 | 50 | 277 | 6.0 | 10.0 | 0.00 | 0.39 | 0.00 | 76 | 1013.7 |
| 20260505171510 | 50 | 278 | 4.0 | 7.0 | 0.00 | 0.39 | 0.00 | 77 | 1013.6 |
| 20260505170017 | 49 | 41 | 4.0 | 11.0 | 0.00 | 0.39 | 0.00 | 82 | 1013.6 |
| 20260505164518 | 48 | 327 | 7.0 | 10.0 | 0.00 | 0.39 | 0.00 | 82 | 1013.5 |
| 20260505163008 | 47 | 42 | 4.0 | 7.0 | 0.00 | 0.39 | 0.00 | 85 | 1013.5 |
| 20260505161507 | 46 | 331 | 2.0 | 6.0 | 0.00 | 0.39 | 0.00 | 88 | 1013.3 |
| 20260505153019 | 44 | 290 | 1.0 | 4.0 | 0.00 | 0.39 | 0.00 | 90 | 1012.9 |
| 20260505151503 | 43 | 355 | 3.0 | 5.0 | 0.00 | 0.39 | 0.00 | 91 | 1012.8 |
| 20260505124535 | 41 | 325 | 2.0 | 4.0 | 0.00 | 0.39 | 0.00 | 94 | 1011.3 |
| 20260505123012 | 41 | 339 | 2.0 | 6.0 | 0.00 | 0.39 | 0.00 | 94 | 1011.1 |
| 20260505121517 | 41 | 320 | 2.0 | 5.0 | 0.00 | 0.39 | 0.00 | 94 | 1011.3 |
| 20260505120023 | 40 | 16 | 5.0 | 7.0 | 0.00 | 0.39 | 0.00 | 94 | 1011.2 |
| 20260505114523 | 40 | 345 | 4.0 | 8.0 | 0.00 | 0.39 | 0.00 | 94 | 1010.9 |
| 20260505113024 | 40 | 292 | 3.0 | 6.0 | 0.00 | 0.39 | 0.00 | 94 | 1010.9 |
| 20260505111512 | 39 | 313 | 2.0 | 4.0 | 0.00 | 0.39 | 0.00 | 94 | 1011.0 |
| 20260505101527 | 39 | 285 | 3.0 | 6.0 | 0.00 | 0.39 | 0.00 | 93 | 1011.3 |
| 20260505100014 | 39 | 244 | 2.0 | 3.0 | 0.00 | 0.39 | 0.00 | 93 | 1011.4 |
| 20260505094520 | 39 | 345 | 3.0 | 6.0 | 0.00 | 0.39 | 0.00 | 93 | 1011.3 |
| 20260505093004 | 40 | 304 | 3.0 | 6.0 | 0.00 | 0.39 | 0.00 | 93 | 1011.2 |
| 20260505091507 | 40 | 347 | 4.0 | 6.0 | 0.00 | 0.39 | 0.00 | 92 | 1011.4 |
| 20260505090011 | 40 | 160 | 2.0 | 3.0 | 0.00 | 0.39 | 0.00 | 92 | 1011.5 |
| 20260505084534 | 40 | 219 | 2.0 | 3.0 | 0.00 | 0.39 | 0.00 | 91 | 1011.8 |
| 20260505083018 | 40 | 166 | 0.0 | 1.0 | 0.00 | 0.39 | 0.00 | 91 | 1012.0 |
| 20260505081511 | 40 | 166 | 0.0 | 3.0 | 0.00 | 0.39 | 0.00 | 91 | 1012.0 |
| 20260505080009 | 40 | 214 | 0.0 | 2.0 | 0.00 | 0.39 | 0.00 | 91 | 1011.9 |
| 20260505074512 | 40 | 229 | 0.0 | 2.0 | 0.00 | 0.39 | 0.00 | 90 | 1012.1 |
| 20260505073016 | 40 | 273 | 2.0 | 5.0 | 0.00 | 0.39 | 0.00 | 90 | 1012.1 |
| 20260505071522 | 40 | 245 | 2.0 | 4.0 | 0.00 | 0.39 | 0.00 | 91 | 1012.1 |
| 20260505070033 | 40 | 271 | 3.0 | 5.0 | 0.00 | 0.39 | 0.00 | 92 | 1011.8 |
| 20260505064508 | 40 | 141 | 3.0 | 7.0 | 0.00 | 0.39 | 0.39 | 92 | 1011.6 |
| 20260505063010 | 40 | 286 | 4.0 | 8.0 | 0.00 | 0.39 | 0.39 | 92 | 1011.1 |
| 20260505061520 | 41 | 342 | 4.0 | 7.0 | 0.02 | 0.39 | 0.39 | 92 | 1010.9 |
| 20260505060028 | 41 | 337 | 6.0 | 8.0 | 0.03 | 0.39 | 0.39 | 92 | 1011.3 |
| 20260505054527 | 41 | 326 | 3.0 | 4.0 | 0.07 | 0.39 | 0.39 | 91 | 1011.5 |
| 20260505053011 | 41 | 128 | 3.0 | 5.0 | 0.08 | 0.39 | 0.39 | 92 | 1011.6 |
| 20260505051517 | 42 | 349 | 5.0 | 9.0 | 0.06 | 0.37 | 0.37 | 92 | 1012.5 |